Washington, LA (70589)

12:55 PM CST on February 08, 2016 (GMT -0600)
Evangeline Sub. | | Change Station
CLOSE
Current Station
Personal Weather Station
Location: Opelousas, LA
Elevation: 82 ft
Nearby Weather Stations
Active Advisory: Wind Advisory

Elev 82 ft 30.58 °N, 92.08 °W | Updated 2 minutes ago

Clear
Clear
62.2 °F
Feels Like 62.2 °F
N
4.7
Wind Variable Wind from NNW

Today
High -- | Low -- °F
--% Chance of Precip.
Yesterday
High -- | Low -- °F
Precip. -- in
Pressure 30.12 in
Visibility 10.0 miles
Clouds Clear
Dew Point 22 °F
Humidity 21%
Rainfall 0.00 in
Snow Depth Not available.
6:55 AM 5:50 PM
New Moon, 0% visible
METAR KOPL 081835Z AUTO 29018G28KT 10SM CLR 15/M10 A3012 RMK AO2 T01471105
Pressure 30.12 in
Visibility 10.0 miles
Clouds Clear
Dew Point 22 °F
Humidity 21%
Rainfall 0.00 in
Snow Depth Not available.
6:55 AM 5:50 PM
New Moon, 0% visible
METAR KOPL 081835Z AUTO 29018G28KT 10SM CLR 15/M10 A3012 RMK AO2 T01471105

10-Day Weather Forecast

Almanac

Astronomy

Feb. 08, 2016 Rise Set
Actual Time
Civil Twilight
Nautical Twilight
Astronomical Twilight
Moon
Length of Visible Light
Length of Day
Tomorrow will be .
, % of the Moon is Illuminated

Today's Extremes

State Highs State Lows

Community

WunderPhotos

Upload Photos

1,891,481 photos uploaded!

WunderBlog® & News

Nearby

Air Quality

  Air Quality AQ Index Pollutant
Not available.

Snow Depth

Station Depth Elevation

Earthquake Activity

City Distance Mag. Time & Date
Minimum magnitude displayed is 2.5.

Coastal Water Temperatures

Place Temperature

Stations

Nearby Weather Stations

Station Location Temp. Windchill Dew Point Humidity Wind Precip. Elev Updated Type
                   

Watches & Warnings

Wind Advisory
Issued: 10:56 AM CST Feb. 8, 2016 – National Weather Service

... Wind Advisory remains in effect until 6 PM CST this evening...

* timing... rest of today.

* Winds... sustained 15 to 25 mph... with gusts 30 to 35 mph.

* Impacts... vehicles and high profile vehicles should use
caution as sudden gusts can cause loss of control. Loose lawn
furniture or trash cans may be blow around.

Precautionary/preparedness actions...

A Wind Advisory means that winds of 20 mph are expected. Winds
this strong can make driving difficult... especially for high
profile vehicles. Use extra caution.



13